Time;durP1;ratioP1;P1;durP2;ratioP2;P2;SDS_P1;SDS_P2;PMS_P1;PMS_P2;Temp;Humidity;BMP_temperature;BMP_pressure;BME280_temperature;BME280_humidity;BME280_pressure;Samples;Min_cycle;Max_cycle;Signal;HPM_P1;HPM_P2
2023/01/13 00:00:31;;;;;;;1.55;0.40;;;;;;;;;;5034232;28;20049;-78
2023/01/13 00:02:58;;;;;;;2.13;0.55;;;;;;;;;;5035735;28;20522;-78
2023/01/13 00:05:25;;;;;;;0.50;0.30;;;;;;;;;;5037414;28;20057;-80
2023/01/13 00:07:52;;;;;;;1.15;0.40;;;;;;;;;;5037260;28;20073;-79
2023/01/13 00:10:18;;;;;;;2.10;0.43;;;;;;;;;;5038938;28;20041;-79
2023/01/13 00:12:45;;;;;;;1.58;0.45;;;;;;;;;;5038306;28;20104;-80
2023/01/13 00:15:12;;;;;;;1.30;0.50;;;;;;;;;;5044285;28;20084;-80
2023/01/13 00:17:38;;;;;;;0.52;0.40;;;;;;;;;;5047752;28;20113;-79
2023/01/13 00:20:06;;;;;;;1.88;0.50;;;;;;;;;;5050854;28;20042;-80
2023/01/13 00:22:33;;;;;;;2.67;0.43;;;;;;;;;;5048255;28;20049;-80
2023/01/13 00:25:00;;;;;;;0.82;0.40;;;;;;;;;;5043832;28;20053;-79
2023/01/13 00:27:27;;;;;;;1.58;0.47;;;;;;;;;;5041685;28;20057;-79
2023/01/13 00:29:54;;;;;;;1.50;0.50;;;;;;;;;;5039922;28;20045;-79
2023/01/13 00:32:20;;;;;;;2.90;0.40;;;;;;;;;;5041744;28;20057;-78
2023/01/13 00:34:47;;;;;;;3.53;0.55;;;;;;;;;;5040714;28;20056;-78
2023/01/13 00:37:13;;;;;;;1.65;0.43;;;;;;;;;;5041384;28;20045;-78
2023/01/13 00:39:40;;;;;;;1.85;0.40;;;;;;;;;;5041713;28;20050;-81
2023/01/13 00:44:52;;;;;;;1.35;0.30;;;;;;;;;;5041091;28;20045;-80
2023/01/13 00:47:18;;;;;;;1.02;0.50;;;;;;;;;;5041967;28;20041;-78
2023/01/13 00:49:45;;;;;;;0.32;0.30;;;;;;;;;;5030336;28;20145;-79
2023/01/13 00:52:11;;;;;;;1.10;0.50;;;;;;;;;;5039400;28;20053;-80
2023/01/13 00:54:38;;;;;;;1.48;0.45;;;;;;;;;;5042931;28;20058;-79
2023/01/13 00:57:04;;;;;;;1.05;0.20;;;;;;;;;;5042491;28;20488;-80
2023/01/13 00:59:31;;;;;;;1.90;0.40;;;;;;;;;;5037786;28;20533;-79
2023/01/13 01:01:57;;;;;;;1.08;0.30;;;;;;;;;;5020674;28;20053;-80
2023/01/13 01:04:24;;;;;;;2.33;0.68;;;;;;;;;;5012187;28;20060;-79
2023/01/13 01:06:50;;;;;;;2.38;0.50;;;;;;;;;;5014733;28;20056;-79
2023/01/13 01:09:16;;;;;;;1.23;0.40;;;;;;;;;;5013091;28;20124;-79
2023/01/13 01:11:43;;;;;;;1.05;0.32;;;;;;;;;;5012959;28;20187;-80
2023/01/13 01:14:11;;;;;;;1.77;0.38;;;;;;;;;;5015068;28;20046;-79
2023/01/13 01:16:38;;;;;;;1.45;0.45;;;;;;;;;;5027502;28;20050;-80
2023/01/13 01:19:04;;;;;;;2.35;0.40;;;;;;;;;;5026391;28;20074;-80
2023/01/13 01:21:31;;;;;;;0.73;0.40;;;;;;;;;;5028773;28;20037;-81
2023/01/13 01:23:59;;;;;;;0.77;0.30;;;;;;;;;;5028778;28;20158;-81
2023/01/13 01:26:26;;;;;;;2.40;0.57;;;;;;;;;;5026540;28;20045;-80
2023/01/13 01:28:53;;;;;;;2.13;0.40;;;;;;;;;;5022499;28;20046;-79
2023/01/13 01:31:24;;;;;;;1.85;0.43;;;;;;;;;;5023619;28;20049;-79
2023/01/13 01:33:51;;;;;;;1.55;0.55;;;;;;;;;;5022232;28;20074;-82
2023/01/13 01:36:19;;;;;;;1.35;0.38;;;;;;;;;;5024986;28;20100;-81
2023/01/13 01:38:45;;;;;;;1.25;0.32;;;;;;;;;;5020665;28;20141;-80
2023/01/13 01:41:13;;;;;;;1.17;0.38;;;;;;;;;;5020575;28;20514;-82
2023/01/13 01:43:58;;;;;;;3.30;1.17;;;;;;;;;;5020606;28;20069;-82
2023/01/13 01:46:29;;;;;;;2.38;0.30;;;;;;;;;;5020191;28;20045;-80
2023/01/13 01:48:58;;;;;;;2.42;0.50;;;;;;;;;;5026618;28;20057;-81
2023/01/13 01:51:26;;;;;;;3.08;0.43;;;;;;;;;;5024492;28;20133;-80
2023/01/13 01:53:55;;;;;;;0.38;0.20;;;;;;;;;;5014229;28;20053;-80
2023/01/13 01:56:21;;;;;;;3.92;0.45;;;;;;;;;;5018030;28;20054;-80
2023/01/13 01:58:50;;;;;;;0.55;0.30;;;;;;;;;;5020100;28;20157;-80
2023/01/13 02:01:16;;;;;;;2.65;0.40;;;;;;;;;;5020600;28;20137;-81
2023/01/13 02:03:45;;;;;;;0.47;0.30;;;;;;;;;;5017709;28;20046;-80
2023/01/13 02:06:12;;;;;;;1.40;0.40;;;;;;;;;;5020687;28;20046;-79
2023/01/13 02:08:39;;;;;;;0.75;0.20;;;;;;;;;;5020030;28;20045;-80
2023/01/13 02:12:28;;;;;;;0.85;0.30;;;;;;;;;;5022193;28;20053;-81
2023/01/13 02:13:52;;;;;;;0.98;0.40;;;;;;;;;;5020524;28;20077;-78
2023/01/13 02:16:21;;;;;;;2.80;0.40;;;;;;;;;;5022055;28;20530;-78
2023/01/13 02:18:48;;;;;;;4.25;0.30;;;;;;;;;;5020034;28;20072;-81
2023/01/13 02:21:23;;;;;;;1.00;0.40;;;;;;;;;;5019839;28;20088;-80
2023/01/13 02:26:57;;;;;;;3.72;0.50;;;;;;;;;;5025802;28;20056;-80
2023/01/13 02:32:19;;;;;;;0.55;0.30;;;;;;;;;;5027287;28;20061;-79
2023/01/13 02:34:52;;;;;;;1.02;0.40;;;;;;;;;;5026994;28;20049;-81
2023/01/13 02:37:22;;;;;;;0.88;0.22;;;;;;;;;;5023612;28;20057;-78
2023/01/13 02:40:07;;;;;;;2.13;0.50;;;;;;;;;;5024102;28;20064;-81
2023/01/13 02:45:26;;;;;;;0.22;0.22;;;;;;;;;;5027349;28;20054;-80
2023/01/13 02:47:54;;;;;;;1.85;0.20;;;;;;;;;;5025762;28;20050;-80
2023/01/13 02:50:23;;;;;;;2.40;0.30;;;;;;;;;;5041010;28;20056;-81
2023/01/13 02:52:56;;;;;;;1.00;0.30;;;;;;;;;;5023240;28;20052;-80
2023/01/13 02:55:25;;;;;;;1.05;0.30;;;;;;;;;;5025173;28;20057;-82
2023/01/13 02:57:52;;;;;;;0.70;0.30;;;;;;;;;;5021590;28;20096;-80
2023/01/13 03:00:19;;;;;;;0.47;0.38;;;;;;;;;;5021131;28;20042;-81
2023/01/13 03:02:46;;;;;;;1.98;0.45;;;;;;;;;;5021762;28;20064;-80
2023/01/13 03:05:14;;;;;;;0.70;0.30;;;;;;;;;;5023042;28;20434;-81
2023/01/13 03:07:47;;;;;;;2.42;0.88;;;;;;;;;;5021355;28;20060;-81
2023/01/13 03:10:13;;;;;;;1.63;0.50;;;;;;;;;;5021881;28;20056;-82
2023/01/13 03:12:47;;;;;;;1.27;0.22;;;;;;;;;;5021491;28;20050;-80
2023/01/13 03:15:16;;;;;;;0.95;0.30;;;;;;;;;;5022003;28;20112;-80
2023/01/13 03:17:58;;;;;;;2.10;0.40;;;;;;;;;;5022296;28;20077;-80
2023/01/13 03:20:27;;;;;;;1.85;0.30;;;;;;;;;;5022565;28;20070;-82
2023/01/13 03:23:02;;;;;;;1.58;0.30;;;;;;;;;;5020225;28;20124;-80
2023/01/13 03:25:39;;;;;;;0.73;0.30;;;;;;;;;;5020150;28;20064;-81
2023/01/13 03:28:08;;;;;;;2.05;0.30;;;;;;;;;;5020115;28;20075;-82
2023/01/13 03:30:39;;;;;;;1.83;0.30;;;;;;;;;;5024605;28;20555;-81
2023/01/13 03:33:29;;;;;;;1.23;0.30;;;;;;;;;;5042934;28;20544;-81
2023/01/13 03:35:58;;;;;;;0.63;0.20;;;;;;;;;;5019984;28;20059;-81
2023/01/13 03:38:28;;;;;;;0.30;0.30;;;;;;;;;;5043915;28;20073;-79
2023/01/13 03:41:00;;;;;;;1.02;0.28;;;;;;;;;;5045794;28;20053;-80
2023/01/13 03:46:28;;;;;;;1.83;0.20;;;;;;;;;;5023870;28;20050;-80
2023/01/13 03:48:56;;;;;;;1.00;0.25;;;;;;;;;;5036709;28;20101;-80
2023/01/13 03:51:23;;;;;;;0.73;0.20;;;;;;;;;;5030279;28;20068;-80
2023/01/13 03:53:54;;;;;;;0.80;0.30;;;;;;;;;;5024207;28;20125;-80
2023/01/13 03:56:26;;;;;;;0.40;0.30;;;;;;;;;;5032239;28;20148;-81
2023/01/13 03:58:53;;;;;;;0.80;0.20;;;;;;;;;;5027228;28;20125;-79
2023/01/13 04:01:28;;;;;;;0.45;0.30;;;;;;;;;;5036719;28;20058;-80
2023/01/13 04:03:59;;;;;;;0.50;0.35;;;;;;;;;;5020215;28;20068;-80
2023/01/13 04:06:32;;;;;;;0.57;0.30;;;;;;;;;;5031141;28;20177;-79
2023/01/13 04:09:06;;;;;;;1.33;0.30;;;;;;;;;;5029305;28;20045;-80
2023/01/13 04:11:36;;;;;;;2.03;0.30;;;;;;;;;;5037913;28;20049;-79
2023/01/13 04:14:03;;;;;;;1.15;0.30;;;;;;;;;;5038206;28;20183;-79
2023/01/13 04:16:31;;;;;;;2.83;0.35;;;;;;;;;;5043508;28;20053;-80
2023/01/13 04:18:57;;;;;;;1.23;0.38;;;;;;;;;;5042907;28;20109;-81
2023/01/13 04:21:27;;;;;;;0.68;0.30;;;;;;;;;;5043322;28;20402;-80
2023/01/13 04:23:54;;;;;;;1.38;0.80;;;;;;;;;;5040732;28;20060;-80
2023/01/13 04:26:22;;;;;;;1.27;0.30;;;;;;;;;;5043711;28;20049;-79
2023/01/13 04:28:48;;;;;;;1.70;0.38;;;;;;;;;;5042175;28;20045;-80
2023/01/13 04:31:15;;;;;;;0.30;0.20;;;;;;;;;;5040720;28;20077;-80
2023/01/13 04:33:41;;;;;;;1.38;0.20;;;;;;;;;;5040005;28;20110;-80
2023/01/13 04:36:08;;;;;;;0.82;0.20;;;;;;;;;;5041514;28;20053;-80
2023/01/13 04:38:34;;;;;;;1.25;0.30;;;;;;;;;;5041946;28;20049;-79
2023/01/13 04:41:01;;;;;;;1.45;0.40;;;;;;;;;;5042423;28;20050;-80
2023/01/13 04:43:27;;;;;;;1.23;0.30;;;;;;;;;;5040695;28;20053;-79
2023/01/13 04:45:54;;;;;;;1.65;0.20;;;;;;;;;;5042298;28;20160;-78
2023/01/13 04:48:20;;;;;;;1.60;0.25;;;;;;;;;;5040544;28;20101;-81
2023/01/13 04:50:46;;;;;;;0.17;0.13;;;;;;;;;;5034639;28;20049;-81
2023/01/13 04:53:13;;;;;;;1.65;0.30;;;;;;;;;;5019346;28;20441;-80
2023/01/13 04:55:39;;;;;;;3.00;0.40;;;;;;;;;;5022335;28;20053;-80
2023/01/13 04:58:07;;;;;;;0.60;0.40;;;;;;;;;;5020414;28;20659;-79
2023/01/13 05:00:34;;;;;;;2.45;0.35;;;;;;;;;;5020493;28;20045;-81
2023/01/13 05:03:01;;;;;;;0.65;0.20;;;;;;;;;;5037874;28;20084;-81
2023/01/13 05:05:28;;;;;;;1.98;0.30;;;;;;;;;;5043178;28;20061;-81
2023/01/13 05:07:54;;;;;;;3.13;0.40;;;;;;;;;;5022295;28;20050;-82
2023/01/13 05:10:21;;;;;;;0.90;0.20;;;;;;;;;;5018767;28;20145;-82
2023/01/13 05:18:19;;;;;;;1.60;0.40;;;;;;;;;;5026191;28;20053;-76
2023/01/13 05:20:46;;;;;;;4.05;0.52;;;;;;;;;;5017531;28;20144;-78
2023/01/13 05:25:57;;;;;;;0.53;0.20;;;;;;;;;;5018863;28;20049;-77
2023/01/13 05:28:24;;;;;;;0.30;0.20;;;;;;;;;;5018410;28;20644;-78
2023/01/13 05:30:51;;;;;;;2.63;0.38;;;;;;;;;;5028515;28;20053;-81
2023/01/13 05:33:19;;;;;;;2.03;0.32;;;;;;;;;;5025764;28;20073;-80
2023/01/13 05:35:46;;;;;;;0.82;0.30;;;;;;;;;;5031346;28;20046;-80
2023/01/13 05:38:13;;;;;;;0.98;0.28;;;;;;;;;;5040482;28;20490;-80
2023/01/13 05:43:25;;;;;;;1.75;0.30;;;;;;;;;;5040673;28;20049;-81
2023/01/13 05:45:52;;;;;;;1.25;0.30;;;;;;;;;;5041573;28;20073;-81
2023/01/13 05:48:19;;;;;;;0.35;0.20;;;;;;;;;;5037992;28;20108;-82
2023/01/13 05:50:46;;;;;;;1.05;0.30;;;;;;;;;;5028449;28;20540;-81
2023/01/13 05:53:12;;;;;;;1.25;0.20;;;;;;;;;;5028347;28;20129;-81
2023/01/13 05:55:42;;;;;;;0.20;0.20;;;;;;;;;;5032766;28;20041;-82
2023/01/13 05:58:10;;;;;;;3.40;0.20;;;;;;;;;;5023616;28;20061;-82
2023/01/13 06:00:37;;;;;;;1.48;0.20;;;;;;;;;;5022756;28;20562;-82
2023/01/13 06:03:06;;;;;;;0.65;0.20;;;;;;;;;;5029481;28;20049;-82
2023/01/13 06:05:33;;;;;;;0.60;0.20;;;;;;;;;;5032868;28;20099;-81
2023/01/13 06:08:01;;;;;;;1.48;0.25;;;;;;;;;;5030319;28;20114;-81
2023/01/13 06:10:28;;;;;;;1.08;0.30;;;;;;;;;;5027547;28;20113;-82
2023/01/13 06:12:54;;;;;;;1.00;0.20;;;;;;;;;;5023330;28;20499;-81
2023/01/13 06:15:21;;;;;;;0.95;0.30;;;;;;;;;;5031916;28;20133;-81
2023/01/13 06:17:48;;;;;;;3.40;0.40;;;;;;;;;;5031594;28;20053;-81
2023/01/13 06:20:16;;;;;;;2.40;0.20;;;;;;;;;;5030465;28;20045;-83
2023/01/13 06:22:45;;;;;;;1.10;0.40;;;;;;;;;;5029787;28;20073;-81
2023/01/13 06:25:15;;;;;;;3.33;0.20;;;;;;;;;;5033530;28;20049;-82
2023/01/13 06:27:41;;;;;;;1.15;0.30;;;;;;;;;;5030514;28;20051;-80
2023/01/13 06:30:08;;;;;;;1.35;0.50;;;;;;;;;;5036950;28;20041;-81
2023/01/13 06:32:37;;;;;;;1.38;0.22;;;;;;;;;;5022557;28;20046;-81
2023/01/13 06:35:07;;;;;;;0.80;0.30;;;;;;;;;;5025130;28;20089;-82
2023/01/13 06:37:34;;;;;;;0.20;0.20;;;;;;;;;;5028586;28;20053;-81
2023/01/13 06:40:01;;;;;;;1.42;0.20;;;;;;;;;;5019386;28;20799;-82
2023/01/13 06:45:14;;;;;;;0.55;0.32;;;;;;;;;;5019056;28;20054;-79
2023/01/13 06:47:41;;;;;;;0.32;0.20;;;;;;;;;;5016734;28;20050;-79
2023/01/13 06:50:08;;;;;;;1.52;0.50;;;;;;;;;;5025091;28;20227;-81
2023/01/13 06:52:34;;;;;;;0.20;0.20;;;;;;;;;;5042314;28;20122;-82
2023/01/13 06:55:01;;;;;;;0.38;0.20;;;;;;;;;;5035736;28;20165;-83
2023/01/13 06:57:28;;;;;;;1.70;0.32;;;;;;;;;;5029644;28;20077;-80
2023/01/13 06:59:54;;;;;;;0.50;0.30;;;;;;;;;;5030163;28;20462;-81
2023/01/13 07:02:21;;;;;;;0.75;0.28;;;;;;;;;;5019220;28;20113;-81
2023/01/13 07:04:47;;;;;;;0.63;0.20;;;;;;;;;;5019736;28;20057;-82
2023/01/13 07:07:14;;;;;;;1.38;0.40;;;;;;;;;;5031266;28;20057;-81
2023/01/13 07:09:40;;;;;;;1.63;0.40;;;;;;;;;;5037374;28;20148;-80
2023/01/13 07:12:06;;;;;;;0.22;0.20;;;;;;;;;;5023122;28;20080;-78
2023/01/13 07:17:23;;;;;;;2.33;0.30;;;;;;;;;;5027183;28;20050;-81
2023/01/13 07:19:51;;;;;;;0.20;0.20;;;;;;;;;;5027967;28;20054;-80
2023/01/13 07:22:17;;;;;;;0.88;0.22;;;;;;;;;;5025011;28;20302;-79
2023/01/13 07:24:44;;;;;;;0.50;0.20;;;;;;;;;;5027531;28;20161;-82
2023/01/13 07:27:10;;;;;;;0.35;0.20;;;;;;;;;;5027364;28;20049;-81
2023/01/13 07:29:37;;;;;;;0.55;0.25;;;;;;;;;;5026452;28;20120;-82
2023/01/13 07:32:04;;;;;;;0.65;0.20;;;;;;;;;;5025661;28;20689;-82
2023/01/13 07:34:30;;;;;;;2.50;0.30;;;;;;;;;;5024541;28;20064;-81
2023/01/13 07:36:57;;;;;;;1.38;0.40;;;;;;;;;;5027014;28;20050;-80
2023/01/13 07:39:23;;;;;;;1.25;0.40;;;;;;;;;;5028071;28;20077;-83
2023/01/13 07:44:35;;;;;;;0.63;0.30;;;;;;;;;;5030135;28;20046;-82
2023/01/13 07:47:01;;;;;;;0.63;0.30;;;;;;;;;;5026919;28;20046;-82
2023/01/13 07:49:28;;;;;;;0.40;0.22;;;;;;;;;;5032401;28;20509;-79
2023/01/13 07:51:54;;;;;;;1.55;0.40;;;;;;;;;;5042773;28;20390;-79
2023/01/13 07:54:20;;;;;;;0.13;0.10;;;;;;;;;;5043594;28;20045;-80
2023/01/13 07:57:05;;;;;;;1.27;0.28;;;;;;;;;;5042807;28;20054;-81
2023/01/13 07:59:31;;;;;;;0.80;0.28;;;;;;;;;;5042302;28;20128;-82
2023/01/13 08:01:58;;;;;;;0.40;0.20;;;;;;;;;;5043459;28;20085;-82
2023/01/13 08:04:25;;;;;;;0.60;0.30;;;;;;;;;;5039108;28;20168;-81
2023/01/13 08:06:51;;;;;;;1.20;0.20;;;;;;;;;;5041024;28;20103;-82
2023/01/13 08:09:17;;;;;;;0.75;0.20;;;;;;;;;;5039232;28;20829;-80
2023/01/13 08:13:16;;;;;;;0.20;0.20;;;;;;;;;;5032741;28;20046;-80
2023/01/13 08:14:30;;;;;;;0.88;0.28;;;;;;;;;;5019066;28;20084;-79
2023/01/13 08:16:57;;;;;;;0.82;0.17;;;;;;;;;;5018425;28;20053;-82
2023/01/13 08:19:23;;;;;;;0.85;0.20;;;;;;;;;;5020558;28;20053;-80
2023/01/13 08:21:49;;;;;;;0.60;0.30;;;;;;;;;;5022030;28;20151;-80
2023/01/13 08:24:16;;;;;;;0.15;0.10;;;;;;;;;;5022863;28;20633;-81
2023/01/13 08:26:42;;;;;;;0.63;0.20;;;;;;;;;;5027363;28;20050;-80
2023/01/13 08:29:09;;;;;;;0.50;0.20;;;;;;;;;;5027037;28;20445;-81
2023/01/13 08:31:37;;;;;;;0.40;0.20;;;;;;;;;;5024255;28;20050;-81
2023/01/13 08:34:03;;;;;;;0.45;0.10;;;;;;;;;;5019460;28;20053;-81
2023/01/13 08:36:29;;;;;;;0.40;0.17;;;;;;;;;;5014909;28;20129;-80
2023/01/13 08:38:56;;;;;;;0.20;0.10;;;;;;;;;;5015310;28;20054;-81
2023/01/13 08:44:08;;;;;;;0.17;0.10;;;;;;;;;;5016048;28;20156;-79
2023/01/13 08:46:35;;;;;;;0.10;0.10;;;;;;;;;;5016505;28;20478;-80
2023/01/13 08:49:01;;;;;;;1.00;0.20;;;;;;;;;;5020499;28;20133;-79
2023/01/13 08:51:27;;;;;;;0.57;0.20;;;;;;;;;;5027204;28;20052;-81
2023/01/13 08:53:54;;;;;;;1.67;0.35;;;;;;;;;;5033784;28;20564;-80
2023/01/13 08:56:20;;;;;;;1.42;0.32;;;;;;;;;;5034928;28;20125;-80
2023/01/13 08:58:47;;;;;;;4.13;0.30;;;;;;;;;;5034655;28;20085;-80
2023/01/13 09:01:17;;;;;;;2.35;0.50;;;;;;;;;;5033322;28;20157;-80
2023/01/13 09:03:43;;;;;;;4.72;0.50;;;;;;;;;;5034923;28;20068;-80
2023/01/13 09:06:10;;;;;;;1.42;0.40;;;;;;;;;;5036639;28;20117;-80
2023/01/13 09:08:36;;;;;;;1.20;0.40;;;;;;;;;;5036254;28;20057;-81
2023/01/13 09:13:10;;;;;;;0.52;0.38;;;;;;;;;;5038617;28;20088;-80
2023/01/13 09:13:49;;;;;;;1.23;0.40;;;;;;;;;;5025131;28;20054;-81
2023/01/13 09:16:16;;;;;;;1.05;0.30;;;;;;;;;;5020164;28;20056;-81
2023/01/13 09:18:42;;;;;;;1.02;0.30;;;;;;;;;;5020427;28;20072;-82
2023/01/13 09:21:10;;;;;;;1.35;0.43;;;;;;;;;;5020396;28;20248;-80
2023/01/13 09:23:36;;;;;;;0.88;0.28;;;;;;;;;;5020716;28;20285;-80
2023/01/13 09:26:02;;;;;;;2.72;0.40;;;;;;;;;;5034566;28;20084;-80
2023/01/13 09:28:29;;;;;;;0.30;0.20;;;;;;;;;;5042711;28;20186;-81
2023/01/13 09:30:59;;;;;;;0.85;0.35;;;;;;;;;;5042162;28;20129;-81
2023/01/13 09:36:11;;;;;;;1.13;0.37;;;;;;;;;;5038898;28;20065;-79
2023/01/13 09:38:37;;;;;;;1.83;0.52;;;;;;;;;;5035076;28;20386;-81
2023/01/13 09:43:52;;;;;;;2.53;1.65;;;;;;;;;;5034055;28;20053;-81
2023/01/13 09:43:54;;;;;;;2.17;0.40;;;;;;;;;;5035006;28;20057;-81
2023/01/13 09:46:51;;;;;;;3.13;0.30;;;;;;;;;;5036156;28;20057;-78
2023/01/13 09:49:21;;;;;;;0.35;0.13;;;;;;;;;;5011972;28;20105;-80
2023/01/13 09:51:56;;;;;;;3.10;0.22;;;;;;;;;;5027467;28;20068;-80
2023/01/13 09:54:35;;;;;;;4.25;0.40;;;;;;;;;;5035388;28;20052;-78
2023/01/13 09:57:07;;;;;;;3.00;0.38;;;;;;;;;;5038805;28;20430;-79
2023/01/13 09:59:35;;;;;;;0.47;0.28;;;;;;;;;;5037046;28;20076;-80
2023/01/13 10:02:20;;;;;;;2.53;0.50;;;;;;;;;;5039749;28;20109;-80
2023/01/13 10:05:02;;;;;;;0.32;0.20;;;;;;;;;;5024429;28;20459;-81
2023/01/13 10:07:30;;;;;;;1.75;0.68;;;;;;;;;;5024066;28;20475;-81
2023/01/13 10:09:57;;;;;;;3.00;0.40;;;;;;;;;;5020434;28;20073;-81
2023/01/13 10:15:15;;;;;;;2.40;0.43;;;;;;;;;;5020946;28;20045;-80
2023/01/13 10:17:45;;;;;;;2.45;0.43;;;;;;;;;;5020778;28;20469;-81
2023/01/13 10:20:16;;;;;;;1.50;0.50;;;;;;;;;;5024089;28;20077;-81
2023/01/13 10:23:02;;;;;;;3.75;0.50;;;;;;;;;;5021394;28;20070;-79
2023/01/13 10:25:28;;;;;;;1.77;0.30;;;;;;;;;;5030989;28;20051;-81
2023/01/13 10:28:00;;;;;;;2.42;0.40;;;;;;;;;;5028835;28;20049;-80
2023/01/13 10:30:31;;;;;;;3.50;0.47;;;;;;;;;;5021403;28;20053;-82
2023/01/13 10:32:59;;;;;;;0.82;0.30;;;;;;;;;;5019152;28;20046;-80
2023/01/13 10:35:44;;;;;;;2.05;0.45;;;;;;;;;;5023514;28;20069;-81
2023/01/13 10:38:15;;;;;;;1.58;0.40;;;;;;;;;;5020619;28;20100;-82
2023/01/13 10:40:48;;;;;;;2.35;0.50;;;;;;;;;;5036210;28;20088;-80
2023/01/13 10:43:15;;;;;;;2.47;0.70;;;;;;;;;;5039622;28;20103;-79
2023/01/13 10:45:42;;;;;;;2.88;0.30;;;;;;;;;;5040836;28;20059;-81
2023/01/13 10:48:12;;;;;;;1.40;0.30;;;;;;;;;;5041327;28;20048;-80
2023/01/13 10:50:39;;;;;;;1.13;0.40;;;;;;;;;;5030174;28;20096;-82
2023/01/13 10:53:16;;;;;;;1.83;0.30;;;;;;;;;;5036250;28;20115;-80
2023/01/13 10:55:43;;;;;;;3.60;0.73;;;;;;;;;;5035756;28;20049;-82
2023/01/13 10:58:14;;;;;;;0.63;0.20;;;;;;;;;;5030889;28;20088;-82
2023/01/13 11:00:41;;;;;;;1.30;0.40;;;;;;;;;;5024012;28;20256;-81
2023/01/13 11:03:14;;;;;;;0.32;0.20;;;;;;;;;;5015802;28;20529;-82
2023/01/13 11:05:47;;;;;;;0.80;0.38;;;;;;;;;;5022069;28;20332;-80
2023/01/13 11:08:15;;;;;;;1.17;0.55;;;;;;;;;;5016906;28;20045;-82
2023/01/13 11:10:46;;;;;;;2.17;0.40;;;;;;;;;;5018390;28;20529;-81
2023/01/13 11:13:18;;;;;;;1.95;0.47;;;;;;;;;;5013096;28;20136;-78
2023/01/13 11:15:54;;;;;;;2.15;0.50;;;;;;;;;;5030838;28;20203;-81
2023/01/13 11:18:27;;;;;;;3.85;0.60;;;;;;;;;;5019408;28;20380;-82
2023/01/13 11:20:54;;;;;;;1.25;0.40;;;;;;;;;;5021938;28;20060;-82
2023/01/13 11:23:26;;;;;;;3.63;0.60;;;;;;;;;;5037859;28;20077;-82
2023/01/13 11:25:59;;;;;;;0.82;0.20;;;;;;;;;;5030792;28;20166;-82
2023/01/13 11:28:45;;;;;;;1.35;0.40;;;;;;;;;;5020417;28;20109;-81
2023/01/13 11:31:11;;;;;;;1.73;0.50;;;;;;;;;;5033977;28;20068;-81
2023/01/13 11:33:44;;;;;;;2.13;0.30;;;;;;;;;;5036383;28;20041;-79
2023/01/13 11:36:17;;;;;;;4.55;0.50;;;;;;;;;;5037496;28;20081;-81
2023/01/13 11:38:50;;;;;;;0.77;0.30;;;;;;;;;;5039040;28;20053;-82
2023/01/13 11:41:35;;;;;;;0.60;0.30;;;;;;;;;;5037168;28;20107;-82
2023/01/13 11:44:22;;;;;;;1.02;0.20;;;;;;;;;;5037441;28;20057;-80
2023/01/13 11:46:49;;;;;;;2.33;0.40;;;;;;;;;;5038717;28;20069;-83
2023/01/13 11:49:25;;;;;;;1.63;0.57;;;;;;;;;;5025165;28;20414;-82
2023/01/13 11:51:56;;;;;;;0.85;0.30;;;;;;;;;;5026820;28;20512;-83
2023/01/13 11:54:25;;;;;;;1.08;0.40;;;;;;;;;;5032931;28;20045;-82
2023/01/13 11:57:04;;;;;;;1.42;0.40;;;;;;;;;;5037825;28;20084;-80
2023/01/13 11:59:30;;;;;;;;;;;;;;;;;;5022001;28;20144;-82
2023/01/13 12:02:13;;;;;;;1.05;0.40;;;;;;;;;;5020670;28;19925;-82
2023/01/13 12:04:52;;;;;;;1.27;0.50;;;;;;;;;;5023680;28;20465;-81
2023/01/13 12:07:18;;;;;;;1.73;0.50;;;;;;;;;;5021717;28;20114;-81
2023/01/13 12:10:03;;;;;;;2.00;0.50;;;;;;;;;;5040658;28;20088;-81
2023/01/13 12:12:37;;;;;;;2.88;0.40;;;;;;;;;;5041093;28;20126;-82
2023/01/13 12:15:04;;;;;;;2.92;0.40;;;;;;;;;;5040664;28;20057;-81
2023/01/13 12:17:42;;;;;;;0.60;0.20;;;;;;;;;;5042671;28;20096;-83
2023/01/13 12:20:20;;;;;;;1.85;0.40;;;;;;;;;;5043110;28;20067;-82
2023/01/13 12:22:46;;;;;;;4.38;0.50;;;;;;;;;;5043436;28;20101;-82
2023/01/13 12:25:22;;;;;;;0.38;0.30;;;;;;;;;;5043725;28;20045;-83
2023/01/13 12:27:52;;;;;;;1.02;0.45;;;;;;;;;;5043876;28;20060;-82
2023/01/13 12:30:24;;;;;;;2.88;0.57;;;;;;;;;;5044774;28;20055;-81
2023/01/13 12:32:52;;;;;;;2.67;0.47;;;;;;;;;;5047753;28;20472;-82
2023/01/13 12:35:19;;;;;;;0.85;0.43;;;;;;;;;;5045242;28;20053;-81
2023/01/13 12:38:04;;;;;;;2.20;0.52;;;;;;;;;;5037460;28;20639;-81
2023/01/13 12:40:42;;;;;;;3.55;0.32;;;;;;;;;;5035021;28;20108;-80
2023/01/13 12:46:28;;;;;;;0.90;0.40;;;;;;;;;;5037479;28;20085;-81
2023/01/13 12:48:58;;;;;;;2.40;0.50;;;;;;;;;;5016723;28;20060;-80
2023/01/13 12:51:24;;;;;;;2.30;0.50;;;;;;;;;;5028730;28;20125;-80
2023/01/13 12:53:51;;;;;;;2.20;0.40;;;;;;;;;;5020484;28;20271;-81
2023/01/13 12:56:25;;;;;;;3.22;0.43;;;;;;;;;;5023317;28;20069;-81
2023/01/13 12:59:12;;;;;;;1.65;0.30;;;;;;;;;;5022276;28;20077;-83
2023/01/13 13:01:38;;;;;;;2.58;0.40;;;;;;;;;;5030036;28;20113;-83
2023/01/13 13:04:13;;;;;;;5.78;0.65;;;;;;;;;;5029801;28;20056;-81
2023/01/13 13:06:44;;;;;;;1.87;0.50;;;;;;;;;;5031659;28;20071;-81
2023/01/13 13:09:14;;;;;;;0.93;0.22;;;;;;;;;;5031104;28;20137;-80
2023/01/13 13:14:44;;;;;;;1.83;0.30;;;;;;;;;;5018045;28;20121;-77
2023/01/13 13:17:13;;;;;;;0.40;0.20;;;;;;;;;;5010040;28;20053;-79
2023/01/13 13:19:40;;;;;;;1.33;0.38;;;;;;;;;;5036264;28;20053;-78
2023/01/13 13:22:13;;;;;;;1.02;0.30;;;;;;;;;;5035244;28;20665;-79
2023/01/13 13:24:40;;;;;;;0.93;0.30;;;;;;;;;;5036843;28;20175;-81
2023/01/13 13:27:17;;;;;;;1.63;0.28;;;;;;;;;;5036620;28;20053;-78
2023/01/13 13:29:51;;;;;;;2.13;0.43;;;;;;;;;;5036883;28;20053;-80
2023/01/13 13:32:33;;;;;;;1.05;0.30;;;;;;;;;;5040496;28;20455;-77
2023/01/13 13:35:26;;;;;;;3.95;0.38;;;;;;;;;;5045776;28;20097;-78
2023/01/13 13:46:47;;;;;;;;;;;;;;;;;;5019194;28;20074;-77
2023/01/13 13:49:17;;;;;;;0.90;0.30;;;;;;;;;;5026981;28;19932;-80
2023/01/13 13:51:57;;;;;;;2.78;0.32;;;;;;;;;;5024657;28;20050;-81
2023/01/13 13:54:24;;;;;;;1.45;0.47;;;;;;;;;;5033022;28;20136;-82
2023/01/13 13:56:53;;;;;;;4.05;0.50;;;;;;;;;;5035829;28;20045;-79
2023/01/13 13:59:24;;;;;;;3.60;0.55;;;;;;;;;;5035770;28;20045;-79
2023/01/13 14:01:59;;;;;;;1.10;0.38;;;;;;;;;;5027413;28;20597;-78
2023/01/13 14:04:31;;;;;;;1.08;0.40;;;;;;;;;;5026201;28;20045;-79
2023/01/13 14:06:59;;;;;;;1.65;0.40;;;;;;;;;;5024775;28;20118;-79
2023/01/13 14:09:30;;;;;;;4.72;0.60;;;;;;;;;;5025012;28;20044;-78
2023/01/13 14:12:00;;;;;;;0.95;0.38;;;;;;;;;;5018693;28;20042;-79
2023/01/13 14:14:27;;;;;;;2.03;0.55;;;;;;;;;;5023985;28;20059;-79
2023/01/13 14:16:54;;;;;;;0.95;0.40;;;;;;;;;;5026779;28;20056;-80
2023/01/13 14:19:24;;;;;;;0.57;0.30;;;;;;;;;;5026150;28;20069;-80
2023/01/13 14:21:52;;;;;;;2.05;0.50;;;;;;;;;;5021801;28;20058;-78
2023/01/13 14:24:21;;;;;;;2.70;0.57;;;;;;;;;;5024015;28;20046;-79
2023/01/13 14:26:50;;;;;;;0.75;0.40;;;;;;;;;;5015405;28;20639;-78
2023/01/13 14:29:19;;;;;;;1.45;0.47;;;;;;;;;;5021472;28;20041;-80
2023/01/13 14:31:47;;;;;;;2.92;1.05;;;;;;;;;;5023867;28;20064;-78
2023/01/13 14:34:15;;;;;;;2.40;0.40;;;;;;;;;;5022870;28;20080;-79
2023/01/13 14:36:58;;;;;;;5.20;0.90;;;;;;;;;;5024796;28;20074;-79
2023/01/13 14:39:32;;;;;;;5.40;0.65;;;;;;;;;;5024347;28;20057;-81
2023/01/13 14:41:59;;;;;;;3.05;0.52;;;;;;;;;;5024786;28;20104;-79
2023/01/13 14:44:26;;;;;;;4.03;0.57;;;;;;;;;;5024998;28;20045;-80
2023/01/13 14:46:54;;;;;;;2.55;0.80;;;;;;;;;;5036605;28;20049;-81
2023/01/13 14:49:24;;;;;;;4.63;0.40;;;;;;;;;;5032146;28;20087;-80
2023/01/13 14:51:51;;;;;;;2.35;0.52;;;;;;;;;;5027863;28;20114;-80
2023/01/13 14:54:36;;;;;;;4.30;0.50;;;;;;;;;;5043390;28;20054;-79
2023/01/13 14:57:21;;;;;;;3.72;0.50;;;;;;;;;;5043119;28;20088;-80
2023/01/13 14:59:55;;;;;;;2.33;0.50;;;;;;;;;;5014358;28;20639;-81
2023/01/13 15:02:24;;;;;;;4.90;0.80;;;;;;;;;;5008169;28;20056;-80
2023/01/13 15:04:56;;;;;;;1.77;0.40;;;;;;;;;;5011617;28;20054;-80
2023/01/13 15:07:27;;;;;;;1.35;0.47;;;;;;;;;;5024305;28;20049;-80
2023/01/13 15:09:58;;;;;;;3.75;0.70;;;;;;;;;;5032138;28;20050;-80
2023/01/13 15:12:32;;;;;;;1.27;0.50;;;;;;;;;;5030392;28;20045;-81
2023/01/13 15:14:58;;;;;;;3.70;0.57;;;;;;;;;;5032956;28;20050;-79
2023/01/13 15:17:24;;;;;;;4.20;0.60;;;;;;;;;;5031352;28;20102;-80
2023/01/13 15:19:52;;;;;;;2.55;0.70;;;;;;;;;;5026359;28;20049;-80
2023/01/13 15:22:18;;;;;;;2.45;0.60;;;;;;;;;;5027662;28;20054;-78
2023/01/13 15:24:45;;;;;;;4.47;0.60;;;;;;;;;;5021284;28;20096;-81
2023/01/13 15:27:16;;;;;;;2.33;0.60;;;;;;;;;;5011620;28;20053;-79
2023/01/13 15:29:42;;;;;;;6.97;0.80;;;;;;;;;;5021175;28;20056;-80
2023/01/13 15:32:21;;;;;;;4.00;0.85;;;;;;;;;;5016161;28;20065;-80
2023/01/13 15:34:47;;;;;;;3.83;0.70;;;;;;;;;;5016664;28;20129;-79
2023/01/13 15:37:15;;;;;;;2.90;0.82;;;;;;;;;;5028111;28;20057;-79
2023/01/13 15:39:42;;;;;;;5.75;0.73;;;;;;;;;;5014156;28;20054;-78
2023/01/13 15:47:43;;;;;;;5.00;0.95;;;;;;;;;;5012292;28;20142;-76
2023/01/13 15:50:13;;;;;;;2.53;0.70;;;;;;;;;;5014312;28;20052;-77
2023/01/13 15:52:40;;;;;;;4.22;1.25;;;;;;;;;;5011479;28;20269;-79
2023/01/13 15:55:06;;;;;;;1.98;1.00;;;;;;;;;;5011828;28;20457;-77
2023/01/13 15:57:34;;;;;;;3.38;0.90;;;;;;;;;;5022231;28;20053;-78
2023/01/13 16:00:03;;;;;;;6.47;0.85;;;;;;;;;;5009906;28;20064;-79